createdAt,value
2019-05-11T00:01:38.760Z,101291.15
2019-05-11T00:04:49.785Z,101294.80
2019-05-11T00:08:00.302Z,101293.94
2019-05-11T00:11:10.153Z,101288.83
2019-05-11T00:14:28.639Z,101289.80
2019-05-11T00:17:43.360Z,101285.35
2019-05-11T00:20:54.139Z,101288.75
2019-05-11T00:24:07.162Z,101283.27
2019-05-11T00:27:19.488Z,101281.65
2019-05-11T00:30:30.538Z,101274.30
2019-05-11T00:33:44.281Z,101279.41
2019-05-11T00:36:54.970Z,101286.94
2019-05-11T00:40:14.260Z,101281.86
2019-05-11T00:43:22.813Z,101277.41
2019-05-11T00:46:33.343Z,101267.06
2019-05-11T00:49:44.030Z,101271.34
2019-05-11T00:52:54.685Z,101276.56
2019-05-11T00:56:05.314Z,101269.00
2019-05-11T00:59:21.857Z,101275.00
2019-05-11T01:02:29.305Z,101281.13
2019-05-11T01:05:39.982Z,101280.02
2019-05-11T01:08:51.102Z,101280.17
2019-05-11T01:12:01.010Z,101285.54
2019-05-11T01:15:12.941Z,101280.73
2019-05-11T01:18:27.072Z,101285.00
2019-05-11T01:21:38.109Z,101286.21
2019-05-11T01:24:49.105Z,101282.59
2019-05-11T01:28:00.190Z,101290.61
2019-05-11T01:31:11.169Z,101286.38
2019-05-11T01:34:22.432Z,101291.89
2019-05-11T01:37:32.519Z,101286.88
2019-05-11T01:40:57.753Z,101290.48
2019-05-11T01:44:00.482Z,101292.70
2019-05-11T01:47:17.284Z,101289.13
2019-05-11T01:50:28.045Z,101293.73
2019-05-11T01:53:37.842Z,101300.03
2019-05-11T01:56:50.859Z,101286.93
2019-05-11T02:03:20.286Z,101277.30
2019-05-11T02:06:30.244Z,101263.92
2019-05-11T02:09:41.073Z,101276.98
2019-05-11T02:12:51.577Z,101276.80
2019-05-11T02:16:02.388Z,101272.13
2019-05-11T02:19:12.837Z,101266.31
2019-05-11T02:22:24.402Z,101268.78
2019-05-11T02:25:37.476Z,101267.27
2019-05-11T02:28:48.175Z,101265.29
2019-05-11T02:32:00.610Z,101259.08
2019-05-11T02:35:12.460Z,101253.44
2019-05-11T02:38:28.218Z,101252.34
2019-05-11T02:41:38.604Z,101252.11
2019-05-11T02:44:49.588Z,101253.38
2019-05-11T02:48:00.200Z,101259.08
2019-05-11T02:51:13.126Z,101261.36
2019-05-11T02:54:24.428Z,101270.77
2019-05-11T02:57:38.729Z,101272.56
2019-05-11T03:00:52.608Z,101271.46
2019-05-11T03:07:24.404Z,101282.05
2019-05-11T03:10:38.422Z,101286.06
2019-05-11T03:13:48.433Z,101299.15
2019-05-11T03:17:15.941Z,101293.66
2019-05-11T03:20:28.119Z,101304.80
2019-05-11T03:23:38.483Z,101306.14
2019-05-11T03:26:51.733Z,101310.39
2019-05-11T03:30:02.541Z,101305.86
2019-05-11T03:33:13.560Z,101311.36
2019-05-11T03:36:42.180Z,101308.71
2019-05-11T03:39:52.263Z,101309.74
2019-05-11T03:43:02.473Z,101314.11
2019-05-11T03:46:13.356Z,101305.20
2019-05-11T03:49:23.237Z,101311.05
2019-05-11T03:52:34.038Z,101303.48
2019-05-11T03:55:43.998Z,101314.48
2019-05-11T03:58:55.217Z,101303.34
2019-05-11T04:02:05.280Z,101312.63
2019-05-11T04:05:15.508Z,101311.15
2019-05-11T04:08:25.422Z,101305.58
2019-05-11T04:11:36.315Z,101309.55
2019-05-11T04:14:47.059Z,101308.30
2019-05-11T04:17:57.523Z,101307.95
2019-05-11T04:21:09.315Z,101310.97
2019-05-11T04:24:19.893Z,101308.86
2019-05-11T04:27:30.783Z,101308.03
2019-05-11T04:30:41.688Z,101310.97
2019-05-11T04:33:52.555Z,101316.59
2019-05-11T04:37:03.686Z,101314.96
2019-05-11T04:40:14.636Z,101306.87
2019-05-11T04:43:27.337Z,101308.09
2019-05-11T04:46:38.095Z,101311.28
2019-05-11T04:49:48.631Z,101308.59
2019-05-11T04:52:59.132Z,101311.36
2019-05-11T04:56:09.100Z,101311.97
2019-05-11T04:59:19.371Z,101309.35
2019-05-11T05:02:30.010Z,101323.86
2019-05-11T05:05:40.321Z,101326.62
2019-05-11T05:08:50.699Z,101333.47
2019-05-11T05:12:00.779Z,101344.16
2019-05-11T05:15:13.965Z,101349.91
2019-05-11T05:18:23.787Z,101358.92
2019-05-11T05:21:34.361Z,101365.70
2019-05-11T05:24:44.136Z,101360.75
2019-05-11T05:27:54.357Z,101362.53
2019-05-11T05:31:04.757Z,101370.80
2019-05-11T05:34:14.311Z,101378.66
2019-05-11T05:37:25.378Z,101370.34
2019-05-11T05:40:35.476Z,101373.31
2019-05-11T05:43:49.085Z,101373.04
2019-05-11T05:46:59.464Z,101375.48
2019-05-11T05:50:13.387Z,101384.58
2019-05-11T05:53:24.632Z,101379.64
2019-05-11T05:56:34.762Z,101390.78
2019-05-11T05:59:45.505Z,101392.40
2019-05-11T06:02:55.333Z,101386.37
2019-05-11T06:06:07.606Z,101390.04
2019-05-11T06:09:18.618Z,101393.45
2019-05-11T06:12:29.477Z,101392.39
2019-05-11T06:15:40.195Z,101381.55
2019-05-11T06:18:51.195Z,101388.69
2019-05-11T06:22:01.459Z,101380.95
2019-05-11T06:25:12.385Z,101386.28
2019-05-11T06:28:22.135Z,101387.89
2019-05-11T06:31:33.759Z,101381.38
2019-05-11T06:34:44.307Z,101387.24
2019-05-11T06:37:55.241Z,101395.06
2019-05-11T06:41:07.543Z,101393.63
2019-05-11T06:44:18.368Z,101394.14
2019-05-11T06:47:28.654Z,101392.44
2019-05-11T06:50:39.332Z,101394.42
2019-05-11T06:53:50.189Z,101392.76
2019-05-11T06:57:01.279Z,101401.97
2019-05-11T07:00:12.607Z,101398.92
2019-05-11T07:03:22.806Z,101408.45
2019-05-11T07:06:33.827Z,101411.33
2019-05-11T07:09:44.539Z,101408.34
2019-05-11T07:12:54.841Z,101414.88
2019-05-11T07:16:07.843Z,101411.41
2019-05-11T07:19:18.613Z,101419.09
2019-05-11T07:22:28.783Z,101417.95
2019-05-11T07:25:39.682Z,101421.54
2019-05-11T07:28:50.604Z,101418.42
2019-05-11T07:32:08.185Z,101418.34
2019-05-11T07:35:12.371Z,101423.99
2019-05-11T07:38:27.825Z,101417.34
2019-05-11T07:41:38.884Z,101432.17
2019-05-11T07:44:50.104Z,101423.86
2019-05-11T07:48:01.322Z,101423.27
2019-05-11T07:51:12.322Z,101422.23
2019-05-11T07:54:23.109Z,101421.15
2019-05-11T07:57:39.048Z,101424.89
2019-05-11T08:00:50.825Z,101422.12
2019-05-11T08:04:01.181Z,101426.33
2019-05-11T08:07:12.017Z,101429.49
2019-05-11T08:10:22.652Z,101429.39
2019-05-11T08:13:33.489Z,101438.13
2019-05-11T08:16:44.211Z,101446.36
2019-05-11T08:19:54.706Z,101439.92
2019-05-11T08:23:08.902Z,101443.22
2019-05-11T08:26:19.273Z,101451.46
2019-05-11T08:29:30.090Z,101440.06
2019-05-11T08:32:40.639Z,101448.67
2019-05-11T08:35:51.235Z,101447.03
2019-05-11T08:39:02.277Z,101447.53
2019-05-11T08:42:12.706Z,101454.63
2019-05-11T08:45:24.886Z,101449.02
2019-05-11T08:48:34.824Z,101453.54
2019-05-11T08:51:47.760Z,101445.63
2019-05-11T08:54:58.170Z,101453.54
2019-05-11T08:58:08.480Z,101462.45
2019-05-11T09:01:19.349Z,101461.62
2019-05-11T09:04:29.134Z,101460.62
2019-05-11T09:07:39.806Z,101461.81
2019-05-11T09:10:50.386Z,101473.28
2019-05-11T09:14:01.462Z,101477.87
2019-05-11T09:17:11.970Z,101470.05
2019-05-11T09:20:22.934Z,101473.78
2019-05-11T09:23:37.660Z,101475.27
2019-05-11T09:26:47.775Z,101479.91
2019-05-11T09:29:58.669Z,101482.81
2019-05-11T09:33:11.117Z,101490.17
2019-05-11T09:36:22.172Z,101485.90
2019-05-11T09:39:35.178Z,101488.91
2019-05-11T09:42:47.894Z,101488.02
2019-05-11T09:45:58.592Z,101490.09
2019-05-11T09:49:09.559Z,101490.08
2019-05-11T09:52:20.032Z,101497.69
2019-05-11T09:55:31.485Z,101500.59
2019-05-11T09:58:42.390Z,101508.20
2019-05-11T10:01:53.229Z,101516.85
2019-05-11T10:05:04.824Z,101514.89
2019-05-11T10:08:15.186Z,101523.45
2019-05-11T10:11:28.090Z,101525.35
2019-05-11T10:14:38.475Z,101519.46
2019-05-11T10:17:55.563Z,101514.45
2019-05-11T10:21:08.211Z,101506.05
2019-05-11T10:24:19.913Z,101513.60
2019-05-11T10:27:29.840Z,101514.87
2019-05-11T10:30:39.765Z,101525.10
2019-05-11T10:33:49.548Z,101513.57
2019-05-11T10:37:00.215Z,101515.72
2019-05-11T10:40:11.767Z,101518.72
2019-05-11T10:43:22.809Z,101525.98
2019-05-11T10:46:32.747Z,101522.08
2019-05-11T10:49:43.318Z,101526.13
2019-05-11T10:52:55.404Z,101525.11
2019-05-11T10:56:08.561Z,101525.55
2019-05-11T10:59:18.917Z,101531.63
2019-05-11T11:02:30.077Z,101532.99
2019-05-11T11:05:41.227Z,101544.98
2019-05-11T11:08:51.068Z,101544.03
2019-05-11T11:12:00.706Z,101547.26
2019-05-11T11:15:11.107Z,101546.00
2019-05-11T11:18:20.827Z,101551.34
2019-05-11T11:21:32.392Z,101554.69
2019-05-11T11:24:43.746Z,101543.91
2019-05-11T11:27:54.303Z,101551.22
2019-05-11T11:31:04.899Z,101547.80
2019-05-11T11:34:15.020Z,101559.70
2019-05-11T11:37:28.117Z,101558.23
2019-05-11T11:40:42.926Z,101564.87
2019-05-11T11:43:53.942Z,101564.55
2019-05-11T11:47:05.042Z,101576.89
2019-05-11T11:50:17.638Z,101587.11
2019-05-11T11:53:27.900Z,101574.89
2019-05-11T11:56:38.841Z,101574.42
2019-05-11T11:59:48.845Z,101584.52
2019-05-11T12:03:00.046Z,101587.67
2019-05-11T12:06:11.060Z,101596.31
2019-05-11T12:09:24.739Z,101581.78
2019-05-11T12:12:35.606Z,101590.56
2019-05-11T12:15:48.004Z,101592.09
2019-05-11T12:18:57.802Z,101600.88
2019-05-11T12:22:08.747Z,101604.46
2019-05-11T12:25:19.718Z,101601.20
2019-05-11T12:28:30.277Z,101612.78
2019-05-11T12:31:40.842Z,101614.55
2019-05-11T12:34:51.855Z,101623.82
2019-05-11T12:38:03.016Z,101625.67
2019-05-11T12:41:14.178Z,101643.64
2019-05-11T12:44:25.002Z,101632.75
2019-05-11T12:47:35.872Z,101643.96
2019-05-11T12:50:48.477Z,101643.50
2019-05-11T12:53:59.199Z,101637.66
2019-05-11T12:57:09.970Z,101633.75
2019-05-11T13:00:22.288Z,101642.56
2019-05-11T13:03:33.138Z,101640.25
2019-05-11T13:06:43.187Z,101654.50
2019-05-11T13:09:53.421Z,101648.73
2019-05-11T13:13:04.276Z,101662.94
2019-05-11T13:16:15.231Z,101662.72
2019-05-11T13:19:25.228Z,101663.14
2019-05-11T13:22:37.964Z,101668.49
2019-05-11T13:25:48.244Z,101668.72
2019-05-11T13:28:58.578Z,101675.71
2019-05-11T13:32:09.600Z,101676.03
2019-05-11T13:35:20.533Z,101674.09
2019-05-11T13:38:31.674Z,101679.62
2019-05-11T13:41:42.386Z,101685.66
2019-05-11T13:44:52.550Z,101687.37
2019-05-11T13:48:03.456Z,101694.59
2019-05-11T13:51:14.502Z,101704.23
2019-05-11T13:54:24.653Z,101705.27
2019-05-11T13:57:37.934Z,101710.52
2019-05-11T14:00:48.221Z,101726.59
2019-05-11T14:03:58.849Z,101735.30
2019-05-11T14:07:09.712Z,101724.31
2019-05-11T14:10:19.864Z,101738.55
2019-05-11T14:13:31.358Z,101745.91
2019-05-11T14:16:42.138Z,101736.20
2019-05-11T14:19:52.034Z,101744.78
2019-05-11T14:23:02.831Z,101760.02
2019-05-11T14:26:13.650Z,101760.98
2019-05-11T14:29:24.367Z,101762.70
2019-05-11T14:32:48.225Z,101777.12
2019-05-11T14:35:58.578Z,101788.95
2019-05-11T14:39:08.855Z,101790.01
2019-05-11T14:42:22.089Z,101781.60
2019-05-11T14:45:31.129Z,101792.95
2019-05-11T14:48:41.220Z,101798.14
2019-05-11T14:51:51.306Z,101802.29
2019-05-11T14:55:02.281Z,101825.00
2019-05-11T14:58:12.470Z,101829.40
2019-05-11T15:01:23.448Z,101825.73
2019-05-11T15:04:34.328Z,101836.97
2019-05-11T15:07:44.520Z,101838.11
2019-05-11T15:10:57.555Z,101846.05
2019-05-11T15:14:08.147Z,101845.03
2019-05-11T15:17:18.990Z,101851.23
2019-05-11T15:20:29.015Z,101855.52
2019-05-11T15:23:38.885Z,101857.09
2019-05-11T15:26:49.102Z,101862.86
2019-05-11T15:30:00.172Z,101869.20
2019-05-11T15:33:11.113Z,101880.67
2019-05-11T15:36:21.180Z,101882.22
2019-05-11T15:39:31.547Z,101893.28
2019-05-11T15:42:42.953Z,101890.66
2019-05-11T15:45:53.700Z,101902.08
2019-05-11T15:49:03.667Z,101905.59
2019-05-11T15:52:18.863Z,101907.38
2019-05-11T15:55:30.407Z,101930.89
2019-05-11T15:58:41.396Z,101927.40
2019-05-11T16:01:54.569Z,101934.93
2019-05-11T16:05:08.465Z,101930.28
2019-05-11T16:08:18.995Z,101945.03
2019-05-11T16:11:29.781Z,101944.20
2019-05-11T16:14:39.543Z,101954.30
2019-05-11T16:17:50.377Z,101960.07
2019-05-11T16:21:00.878Z,101968.61
2019-05-11T16:24:11.794Z,101968.44
2019-05-11T16:27:21.590Z,101966.94
2019-05-11T16:30:32.370Z,101977.36
2019-05-11T16:33:42.694Z,101990.38
2019-05-11T16:36:52.947Z,102003.94
2019-05-11T16:40:09.910Z,102007.36
2019-05-11T16:43:20.195Z,102010.88
2019-05-11T16:46:30.744Z,102017.95
2019-05-11T16:49:41.416Z,102015.11
2019-05-11T16:52:51.663Z,102024.36
2019-05-11T16:56:01.620Z,102025.98
2019-05-11T16:59:12.513Z,102024.83
2019-05-11T17:02:22.807Z,102035.78
2019-05-11T17:05:33.789Z,102038.56
2019-05-11T17:08:45.167Z,102042.39
2019-05-11T17:11:57.898Z,102041.87
2019-05-11T17:15:10.011Z,102047.16
2019-05-11T17:18:20.387Z,102048.48
2019-05-11T17:21:30.787Z,102054.95
2019-05-11T17:24:41.358Z,102066.30
2019-05-11T17:27:51.314Z,102076.05
2019-05-11T17:31:03.048Z,102083.91
2019-05-11T17:34:13.095Z,102088.98
2019-05-11T17:37:23.761Z,102100.54
2019-05-11T17:40:34.155Z,102098.54
2019-05-11T17:43:44.476Z,102099.94
2019-05-11T17:46:55.083Z,102105.73
2019-05-11T17:50:08.110Z,102108.84
2019-05-11T17:53:18.850Z,102123.58
2019-05-11T17:56:29.273Z,102117.81
2019-05-11T17:59:40.225Z,102126.50
2019-05-11T18:02:50.680Z,102129.52
2019-05-11T18:06:03.506Z,102137.77
2019-05-11T18:09:13.521Z,102138.81
2019-05-11T18:12:23.876Z,102144.38
2019-05-11T18:15:34.592Z,102156.48
2019-05-11T18:18:48.211Z,102152.31
2019-05-11T18:21:57.792Z,102166.14
2019-05-11T18:25:09.793Z,102169.10
2019-05-11T18:28:20.328Z,102169.81
2019-05-11T18:31:30.559Z,102171.14
2019-05-11T18:34:40.979Z,102178.41
2019-05-11T18:37:50.913Z,102190.61
2019-05-11T18:41:01.635Z,102207.50
2019-05-11T18:44:11.336Z,102209.02
2019-05-11T18:47:22.062Z,102219.50
2019-05-11T18:50:34.091Z,102213.36
2019-05-11T18:53:43.935Z,102219.91
2019-05-11T18:56:54.173Z,102229.03
2019-05-11T19:00:07.964Z,102234.66
2019-05-11T19:03:19.354Z,102254.59
2019-05-11T19:06:28.663Z,102246.34
2019-05-11T19:09:39.623Z,102260.05
2019-05-11T19:12:49.256Z,102267.70
2019-05-11T19:15:59.891Z,102281.47
2019-05-11T19:19:10.867Z,102285.86
2019-05-11T19:22:21.588Z,102286.06
2019-05-11T19:25:32.228Z,102288.16
2019-05-11T19:28:42.243Z,102290.63
2019-05-11T19:31:53.243Z,102305.55
2019-05-11T19:35:03.844Z,102316.36
2019-05-11T19:38:14.327Z,102315.38
2019-05-11T19:41:24.844Z,102323.55
2019-05-11T19:44:35.624Z,102332.51
2019-05-11T19:47:48.324Z,102332.31
2019-05-11T19:51:04.664Z,102339.89
2019-05-11T19:54:09.446Z,102339.77
2019-05-11T19:57:19.437Z,102335.31
2019-05-11T20:00:30.228Z,102342.98
2019-05-11T20:03:40.192Z,102352.27
2019-05-11T20:06:51.125Z,102352.75
2019-05-11T20:10:02.241Z,102349.34
2019-05-11T20:13:13.068Z,102353.05
2019-05-11T20:16:23.309Z,102356.87
2019-05-11T20:19:34.562Z,102363.30
2019-05-11T20:22:45.081Z,102359.17
2019-05-11T20:25:58.194Z,102363.31
2019-05-11T20:29:08.645Z,102361.17
2019-05-11T20:32:19.428Z,102359.33
2019-05-11T20:35:32.687Z,102366.70
2019-05-11T20:38:43.383Z,102366.51
2019-05-11T20:41:54.223Z,102369.32
2019-05-11T20:45:07.819Z,102369.03
2019-05-11T20:48:18.437Z,102371.44
2019-05-11T20:51:36.706Z,102382.20
2019-05-11T20:54:40.583Z,102389.78
2019-05-11T20:57:50.808Z,102395.16
2019-05-11T21:01:03.382Z,102403.95
2019-05-11T21:04:13.538Z,102405.11
2019-05-11T21:07:23.385Z,102404.65
2019-05-11T21:10:34.083Z,102416.06
2019-05-11T21:13:44.350Z,102414.09
2019-05-11T21:16:55.093Z,102423.31
2019-05-11T21:20:09.437Z,102423.64
2019-05-11T21:23:21.451Z,102429.15
2019-05-11T21:26:32.364Z,102435.94
2019-05-11T21:29:43.862Z,102438.40
2019-05-11T21:32:53.695Z,102444.66
2019-05-11T21:36:04.317Z,102451.20
2019-05-11T21:39:15.430Z,102452.94
2019-05-11T21:42:27.948Z,102451.44
2019-05-11T21:45:40.339Z,102454.48
2019-05-11T21:48:49.080Z,102458.57
2019-05-11T21:52:04.446Z,102460.89
2019-05-11T21:55:11.511Z,102474.47
2019-05-11T21:58:21.437Z,102474.80
2019-05-11T22:01:32.267Z,102481.98
2019-05-11T22:04:41.513Z,102478.85
2019-05-11T22:07:52.568Z,102488.86
2019-05-11T22:11:02.494Z,102495.48
2019-05-11T22:14:12.451Z,102494.97
2019-05-11T22:17:22.399Z,102499.85
2019-05-11T22:20:33.334Z,102493.41
2019-05-11T22:23:43.270Z,102498.91
2019-05-11T22:26:53.803Z,102509.56
2019-05-11T22:30:04.724Z,102510.77
2019-05-11T22:33:14.636Z,102516.69
2019-05-11T22:36:25.140Z,102522.02
2019-05-11T22:39:35.004Z,102523.84
2019-05-11T22:42:44.984Z,102531.06
2019-05-11T22:45:57.938Z,102530.95
2019-05-11T22:49:08.466Z,102539.94
2019-05-11T22:52:32.972Z,102540.62
2019-05-11T22:55:32.340Z,102545.02
2019-05-11T22:58:42.568Z,102548.67
2019-05-11T23:01:53.422Z,102558.86
2019-05-11T23:05:04.231Z,102557.73
2019-05-11T23:08:14.623Z,102568.61
2019-05-11T23:11:25.292Z,102562.69
2019-05-11T23:14:37.564Z,102562.29
2019-05-11T23:17:48.138Z,102567.92
2019-05-11T23:20:58.842Z,102566.91
2019-05-11T23:24:09.230Z,102577.52
2019-05-11T23:27:19.508Z,102572.25
2019-05-11T23:30:30.025Z,102578.09
2019-05-11T23:33:40.181Z,102577.80
2019-05-11T23:36:50.351Z,102580.01
2019-05-11T23:39:59.938Z,102588.59
2019-05-11T23:43:10.312Z,102604.14
2019-05-11T23:46:20.203Z,102601.20
2019-05-11T23:49:30.994Z,102608.26
2019-05-11T23:52:41.549Z,102613.31
2019-05-11T23:55:51.458Z,102617.89
2019-05-11T23:59:03.258Z,102620.20
